Time;durP1;ratioP1;P1;durP2;ratioP2;P2;SDS_P1;SDS_P2;PMS_P1;PMS_P2;Temp;Humidity;BMP_temperature;BMP_pressure;BME280_temperature;BME280_humidity;BME280_pressure;Samples;Min_cycle;Max_cycle;Signal;HPM_P1;HPM_P2
2023/09/28 00:00:46;;;;;;;2.28;0.45;;;;;;;;;;4863224;29;20042;-78
2023/09/28 00:03:17;;;;;;;1.58;0.70;;;;;;;;;;4863357;29;20056;-77
2023/09/28 00:05:48;;;;;;;0.88;0.40;;;;;;;;;;4863605;29;20520;-78
2023/09/28 00:08:19;;;;;;;1.58;0.77;;;;;;;;;;4862928;29;20413;-78
2023/09/28 00:11:17;;;;;;;1.48;0.47;;;;;;;;;;4867476;29;20052;-80
2023/09/28 00:13:48;;;;;;;1.15;0.40;;;;;;;;;;4863831;29;20531;-78
2023/09/28 00:16:18;;;;;;;0.82;0.45;;;;;;;;;;4840468;29;20057;-78
2023/09/28 00:18:51;;;;;;;2.08;0.32;;;;;;;;;;4863532;29;20576;-79
2023/09/28 00:21:25;;;;;;;0.75;0.45;;;;;;;;;;4863194;29;20060;-78
2023/09/28 00:23:56;;;;;;;1.25;0.60;;;;;;;;;;4863332;29;20056;-78
2023/09/28 00:26:26;;;;;;;1.15;0.50;;;;;;;;;;4863609;29;20061;-77
2023/09/28 00:28:57;;;;;;;0.63;0.30;;;;;;;;;;4863063;29;20046;-78
2023/09/28 00:31:28;;;;;;;0.88;0.60;;;;;;;;;;4863018;29;20045;-78
2023/09/28 00:34:00;;;;;;;1.15;0.45;;;;;;;;;;4867525;29;20429;-79
2023/09/28 00:36:30;;;;;;;2.80;0.40;;;;;;;;;;4845147;29;20042;-79
2023/09/28 00:39:03;;;;;;;0.73;0.73;;;;;;;;;;4826191;29;20056;-77
2023/09/28 00:41:33;;;;;;;1.35;0.57;;;;;;;;;;4826136;29;20054;-77
2023/09/28 00:44:07;;;;;;;1.58;0.22;;;;;;;;;;4843054;29;20054;-78
2023/09/28 00:46:37;;;;;;;0.65;0.35;;;;;;;;;;4843198;29;20054;-78
2023/09/28 00:49:17;;;;;;;0.28;0.20;;;;;;;;;;4843850;29;20058;-79
2023/09/28 00:51:48;;;;;;;0.35;0.20;;;;;;;;;;4827355;29;20050;-79
2023/09/28 00:54:21;;;;;;;1.23;0.73;;;;;;;;;;4826344;29;20061;-77
2023/09/28 00:56:51;;;;;;;;;;;;;;;;;;4837779;29;20042;-78
2023/09/28 00:59:24;;;;;;;0.40;0.30;;;;;;;;;;4861274;29;19924;-79
2023/09/28 01:01:55;;;;;;;0.38;0.20;;;;;;;;;;4862076;29;20049;-78
2023/09/28 01:04:26;;;;;;;0.52;0.30;;;;;;;;;;4861372;29;20401;-77
2023/09/28 01:06:56;;;;;;;0.40;0.40;;;;;;;;;;4861812;29;20045;-77
2023/09/28 01:09:28;;;;;;;1.05;0.60;;;;;;;;;;4875154;29;20054;-77
2023/09/28 01:11:59;;;;;;;1.00;0.35;;;;;;;;;;4861931;29;20053;-78
2023/09/28 01:14:32;;;;;;;0.47;0.40;;;;;;;;;;4845339;29;20053;-76
2023/09/28 01:17:04;;;;;;;0.85;0.52;;;;;;;;;;4861318;29;20052;-76
2023/09/28 01:19:34;;;;;;;0.68;0.30;;;;;;;;;;4860514;29;20057;-78
2023/09/28 01:22:15;;;;;;;3.92;0.75;;;;;;;;;;4846414;29;20058;-76
2023/09/28 01:24:48;;;;;;;0.30;0.30;;;;;;;;;;4827082;29;20378;-77
2023/09/28 01:27:19;;;;;;;0.88;0.35;;;;;;;;;;4853885;29;20504;-79
2023/09/28 01:29:50;;;;;;;2.58;0.50;;;;;;;;;;4841542;29;20412;-78
2023/09/28 01:32:22;;;;;;;1.27;0.50;;;;;;;;;;4860740;29;20053;-77
2023/09/28 01:34:54;;;;;;;1.73;0.57;;;;;;;;;;4844800;29;20046;-77
2023/09/28 01:37:33;;;;;;;1.38;0.43;;;;;;;;;;4841370;29;20053;-79
2023/09/28 01:40:05;;;;;;;0.43;0.32;;;;;;;;;;4825338;29;20060;-79
2023/09/28 01:42:38;;;;;;;2.55;0.38;;;;;;;;;;4852341;29;20060;-79
2023/09/28 01:45:09;;;;;;;0.55;0.32;;;;;;;;;;4856170;29;20046;-78
2023/09/28 01:47:42;;;;;;;0.65;0.30;;;;;;;;;;4840931;29;20049;-77
2023/09/28 01:50:12;;;;;;;0.68;0.30;;;;;;;;;;4860368;29;20057;-79
2023/09/28 01:52:43;;;;;;;0.77;0.30;;;;;;;;;;4843304;29;20057;-79
2023/09/28 01:55:13;;;;;;;0.75;0.43;;;;;;;;;;4860030;29;20520;-78
2023/09/28 01:57:46;;;;;;;1.15;0.32;;;;;;;;;;4856208;29;20053;-78
2023/09/28 02:00:20;;;;;;;1.67;0.50;;;;;;;;;;4842951;29;20237;-77
2023/09/28 02:02:54;;;;;;;1.85;0.32;;;;;;;;;;4843959;29;20046;-79
2023/09/28 02:05:29;;;;;;;1.05;0.60;;;;;;;;;;4855253;29;20536;-77
2023/09/28 02:08:02;;;;;;;1.70;0.32;;;;;;;;;;4859847;29;20148;-77
2023/09/28 02:10:33;;;;;;;0.75;0.40;;;;;;;;;;4859765;29;20049;-77
2023/09/28 02:13:05;;;;;;;;;;;;;;;;;;4843641;29;20056;-79
2023/09/28 02:15:37;;;;;;;0.95;0.43;;;;;;;;;;4857940;29;19935;-76
2023/09/28 02:18:08;;;;;;;3.80;0.40;;;;;;;;;;4856004;29;20049;-76
2023/09/28 02:20:39;;;;;;;1.70;0.43;;;;;;;;;;4859051;29;20397;-79
2023/09/28 02:23:18;;;;;;;0.70;0.40;;;;;;;;;;4842513;29;20064;-78
2023/09/28 02:25:51;;;;;;;1.52;0.50;;;;;;;;;;4856373;29;20048;-77
2023/09/28 02:28:21;;;;;;;0.95;0.40;;;;;;;;;;4859400;29;20061;-77
2023/09/28 02:30:51;;;;;;;0.63;0.32;;;;;;;;;;4859706;29;20065;-78
2023/09/28 02:33:22;;;;;;;0.52;0.40;;;;;;;;;;4859521;29;20507;-79
2023/09/28 02:35:56;;;;;;;2.20;0.70;;;;;;;;;;4843649;29;20045;-78
2023/09/28 02:38:29;;;;;;;1.67;0.65;;;;;;;;;;4855988;29;20056;-78
2023/09/28 02:41:00;;;;;;;1.63;0.63;;;;;;;;;;4859174;29;20046;-77
2023/09/28 02:43:31;;;;;;;1.35;0.60;;;;;;;;;;4842537;29;20057;-79
2023/09/28 02:46:06;;;;;;;1.17;0.57;;;;;;;;;;4857985;29;20393;-78
2023/09/28 02:48:38;;;;;;;;;;;;;;;;;;4855129;29;20038;-78
2023/09/28 02:51:10;;;;;;;3.17;0.90;;;;;;;;;;4858646;29;19931;-78
2023/09/28 02:53:41;;;;;;;3.28;1.00;;;;;;;;;;4843214;29;20049;-78
2023/09/28 02:56:14;;;;;;;2.58;0.77;;;;;;;;;;4874655;29;20061;-80
2023/09/28 02:58:51;;;;;;;3.75;1.00;;;;;;;;;;4868186;29;20028;-79
2023/09/28 03:01:24;;;;;;;4.07;0.80;;;;;;;;;;4882487;29;20935;-79
2023/09/28 03:04:00;;;;;;;2.72;1.13;;;;;;;;;;4879763;29;20029;-79
2023/09/28 03:06:40;;;;;;;4.07;1.10;;;;;;;;;;4895049;29;20034;-79
2023/09/28 03:09:16;;;;;;;3.17;1.02;;;;;;;;;;4864860;29;20480;-79
2023/09/28 03:11:47;;;;;;;2.22;1.15;;;;;;;;;;4859565;29;20049;-78
2023/09/28 03:14:19;;;;;;;4.43;1.10;;;;;;;;;;4859490;29;20042;-78
2023/09/28 03:16:52;;;;;;;4.55;1.13;;;;;;;;;;4859300;29;20523;-78
2023/09/28 03:19:25;;;;;;;3.65;1.15;;;;;;;;;;4859176;29;20046;-78
2023/09/28 03:22:01;;;;;;;2.05;0.73;;;;;;;;;;4857509;29;20045;-79
2023/09/28 03:24:31;;;;;;;2.65;0.90;;;;;;;;;;4859477;29;20045;-78
2023/09/28 03:27:03;;;;;;;2.08;0.98;;;;;;;;;;4859200;29;20045;-78
2023/09/28 03:29:42;;;;;;;3.58;1.05;;;;;;;;;;4856479;29;20050;-78
2023/09/28 03:32:13;;;;;;;1.80;0.88;;;;;;;;;;4840104;29;20062;-78
2023/09/28 03:34:43;;;;;;;2.97;1.10;;;;;;;;;;4859043;29;20050;-78
2023/09/28 03:37:18;;;;;;;2.45;0.88;;;;;;;;;;4855013;29;20057;-78
2023/09/28 03:39:52;;;;;;;2.67;0.90;;;;;;;;;;4855962;29;20057;-78
2023/09/28 03:42:22;;;;;;;2.47;0.90;;;;;;;;;;4858648;29;20042;-77
2023/09/28 03:44:54;;;;;;;3.03;1.20;;;;;;;;;;4840766;29;20446;-76
2023/09/28 03:47:24;;;;;;;3.30;1.20;;;;;;;;;;4858515;29;20048;-78
2023/09/28 03:49:56;;;;;;;6.15;1.60;;;;;;;;;;4854650;29;20060;-78
2023/09/28 03:52:34;;;;;;;2.67;1.40;;;;;;;;;;4842692;29;20058;-78
2023/09/28 03:56:10;;;;;;;4.28;1.40;;;;;;;;;;4802706;29;20067;-79
2023/09/28 03:58:57;;;;;;;3.83;1.67;;;;;;;;;;4734057;30;20061;-76
2023/09/28 04:01:29;;;;;;;3.97;1.52;;;;;;;;;;4734491;30;20064;-77
2023/09/28 04:04:00;;;;;;;3.25;1.27;;;;;;;;;;4735391;30;20060;-77
2023/09/28 04:06:31;;;;;;;3.17;1.20;;;;;;;;;;4735603;30;20068;-77
2023/09/28 04:09:02;;;;;;;4.05;1.55;;;;;;;;;;4720481;30;20072;-78
2023/09/28 04:11:34;;;;;;;6.38;1.65;;;;;;;;;;4735728;30;20076;-77
2023/09/28 04:14:08;;;;;;;4.82;1.77;;;;;;;;;;4735102;30;20109;-77
2023/09/28 04:16:39;;;;;;;3.28;1.38;;;;;;;;;;4735395;30;20064;-78
2023/09/28 04:19:09;;;;;;;3.40;1.25;;;;;;;;;;4735420;30;20138;-77
2023/09/28 04:21:43;;;;;;;3.50;1.33;;;;;;;;;;4735140;30;20061;-78
2023/09/28 04:24:14;;;;;;;3.47;1.55;;;;;;;;;;4734908;30;20068;-78
2023/09/28 04:26:44;;;;;;;5.75;2.00;;;;;;;;;;4735022;30;20540;-78
2023/09/28 04:29:14;;;;;;;4.68;1.40;;;;;;;;;;4732771;30;20063;-80
2023/09/28 04:31:46;;;;;;;5.75;1.55;;;;;;;;;;4825485;29;20058;-78
2023/09/28 04:34:20;;;;;;;2.67;1.33;;;;;;;;;;4844505;29;20054;-78
2023/09/28 04:36:53;;;;;;;2.22;0.90;;;;;;;;;;4844620;29;20054;-77
2023/09/28 04:39:24;;;;;;;3.40;1.45;;;;;;;;;;4844782;29;20117;-77
2023/09/28 04:41:55;;;;;;;3.25;1.38;;;;;;;;;;4844298;29;20379;-79
2023/09/28 04:44:27;;;;;;;5.88;1.85;;;;;;;;;;4844855;29;20050;-78
2023/09/28 04:46:58;;;;;;;3.10;1.70;;;;;;;;;;4844500;29;20046;-78
2023/09/28 04:49:29;;;;;;;4.88;1.60;;;;;;;;;;4844141;29;20065;-77
2023/09/28 04:52:00;;;;;;;2.42;1.17;;;;;;;;;;4843705;29;20046;-77
2023/09/28 04:54:34;;;;;;;4.13;1.10;;;;;;;;;;4844726;29;20123;-78
2023/09/28 04:57:05;;;;;;;4.03;1.30;;;;;;;;;;4844065;29;20050;-78
2023/09/28 04:59:39;;;;;;;6.22;1.48;;;;;;;;;;4844611;29;20068;-78
2023/09/28 05:02:15;;;;;;;1.80;0.82;;;;;;;;;;4844345;29;20486;-77
2023/09/28 05:04:47;;;;;;;6.35;1.63;;;;;;;;;;4843968;29;20054;-77
2023/09/28 05:07:18;;;;;;;2.50;1.15;;;;;;;;;;4843936;29;20121;-77
2023/09/28 05:09:49;;;;;;;2.60;1.02;;;;;;;;;;4844229;29;20054;-77
2023/09/28 05:12:21;;;;;;;3.65;1.08;;;;;;;;;;4843388;29;20061;-77
2023/09/28 05:14:52;;;;;;;2.95;1.30;;;;;;;;;;4844703;29;20462;-80
2023/09/28 05:17:25;;;;;;;5.30;1.45;;;;;;;;;;4843908;29;20061;-78
2023/09/28 05:19:55;;;;;;;3.20;1.35;;;;;;;;;;4843965;29;20046;-77
2023/09/28 05:22:32;;;;;;;3.90;1.63;;;;;;;;;;4843627;29;20054;-79
2023/09/28 05:25:03;;;;;;;2.65;1.20;;;;;;;;;;4843873;29;20050;-78
2023/09/28 05:27:35;;;;;;;3.45;1.20;;;;;;;;;;4843688;29;20046;-77
2023/09/28 05:30:05;;;;;;;3.30;1.40;;;;;;;;;;4843454;29;20049;-77
2023/09/28 05:32:40;;;;;;;3.75;1.50;;;;;;;;;;4843436;29;20045;-77
2023/09/28 05:35:12;;;;;;;4.10;1.63;;;;;;;;;;4843943;29;20060;-77
2023/09/28 05:37:42;;;;;;;3.95;1.52;;;;;;;;;;4843267;29;20053;-77
2023/09/28 05:40:12;;;;;;;3.83;1.80;;;;;;;;;;4843392;29;20057;-78
2023/09/28 05:42:43;;;;;;;7.43;1.77;;;;;;;;;;4843725;29;20049;-78
2023/09/28 05:45:18;;;;;;;4.88;1.80;;;;;;;;;;4843699;29;20386;-77
2023/09/28 05:47:50;;;;;;;3.55;1.50;;;;;;;;;;4843161;29;20061;-78
2023/09/28 05:50:21;;;;;;;6.18;1.58;;;;;;;;;;4843170;29;20054;-77
2023/09/28 05:52:55;;;;;;;4.68;2.00;;;;;;;;;;4843184;29;20056;-77
2023/09/28 05:55:25;;;;;;;5.22;1.83;;;;;;;;;;4843825;29;20049;-75
2023/09/28 05:57:59;;;;;;;4.20;1.88;;;;;;;;;;4842894;29;20057;-78
2023/09/28 06:00:36;;;;;;;3.83;1.27;;;;;;;;;;4827509;29;20042;-77
2023/09/28 06:03:06;;;;;;;6.97;2.22;;;;;;;;;;4843074;29;20057;-77
2023/09/28 06:05:40;;;;;;;6.10;1.83;;;;;;;;;;4843547;29;20501;-78
2023/09/28 06:08:11;;;;;;;5.40;2.05;;;;;;;;;;4843123;29;20371;-78
2023/09/28 06:10:48;;;;;;;4.55;1.60;;;;;;;;;;4842941;29;20046;-78
2023/09/28 06:13:34;;;;;;;5.05;1.55;;;;;;;;;;4843089;29;20390;-77
2023/09/28 06:16:18;;;;;;;6.28;1.40;;;;;;;;;;4842951;29;20473;-77
2023/09/28 06:18:49;;;;;;;;;;;;;;;;;;4843831;29;20069;-77
2023/09/28 06:21:19;;;;;;;4.35;1.73;;;;;;;;;;4842865;29;19924;-77
2023/09/28 06:23:49;;;;;;;4.10;1.65;;;;;;;;;;4842110;29;20053;-78
2023/09/28 06:26:21;;;;;;;3.25;1.60;;;;;;;;;;4842861;29;20057;-78
2023/09/28 06:29:10;;;;;;;6.70;1.90;;;;;;;;;;4842631;29;20061;-77
2023/09/28 06:31:41;;;;;;;6.25;2.13;;;;;;;;;;4842486;29;20062;-78
2023/09/28 06:34:12;;;;;;;5.60;2.13;;;;;;;;;;4842604;29;20489;-77
2023/09/28 06:36:42;;;;;;;5.57;1.95;;;;;;;;;;4842361;29;20053;-77
2023/09/28 06:39:16;;;;;;;4.10;1.45;;;;;;;;;;4842900;29;20054;-78
2023/09/28 06:41:49;;;;;;;3.83;1.83;;;;;;;;;;4842623;29;20053;-77
2023/09/28 06:44:26;;;;;;;5.03;1.48;;;;;;;;;;4827713;29;20057;-76
2023/09/28 06:46:59;;;;;;;4.72;1.52;;;;;;;;;;4842742;29;20050;-77
2023/09/28 06:49:34;;;;;;;3.80;1.50;;;;;;;;;;4842752;29;20149;-78
2023/09/28 06:52:06;;;;;;;5.95;1.73;;;;;;;;;;4842432;29;20053;-79
2023/09/28 06:54:38;;;;;;;4.00;1.60;;;;;;;;;;4842270;29;20145;-79
2023/09/28 06:57:08;;;;;;;5.53;1.67;;;;;;;;;;4842223;29;20061;-79
2023/09/28 06:59:41;;;;;;;8.15;1.77;;;;;;;;;;4842533;29;20046;-78
2023/09/28 07:02:15;;;;;;;3.70;1.70;;;;;;;;;;4842443;29;20050;-78
2023/09/28 07:04:51;;;;;;;5.43;1.90;;;;;;;;;;4842215;29;20053;-78
2023/09/28 07:07:22;;;;;;;6.95;1.70;;;;;;;;;;4842702;29;20050;-77
2023/09/28 07:09:55;;;;;;;3.83;1.58;;;;;;;;;;4826697;29;20054;-78
2023/09/28 07:12:28;;;;;;;3.50;1.23;;;;;;;;;;4842316;29;20061;-77
2023/09/28 07:15:00;;;;;;;3.58;1.60;;;;;;;;;;4842697;29;20061;-79
2023/09/28 07:17:30;;;;;;;4.20;1.52;;;;;;;;;;4842152;29;20402;-76
2023/09/28 07:20:05;;;;;;;6.30;1.75;;;;;;;;;;4844408;29;20054;-76
2023/09/28 07:22:39;;;;;;;4.65;1.63;;;;;;;;;;4865581;29;20034;-78
2023/09/28 07:25:10;;;;;;;5.82;2.20;;;;;;;;;;4865600;29;20038;-76
2023/09/28 07:27:45;;;;;;;5.35;1.70;;;;;;;;;;4865438;29;20030;-77
2023/09/28 07:30:22;;;;;;;8.02;1.70;;;;;;;;;;4850337;29;20030;-77
2023/09/28 07:32:54;;;;;;;4.13;1.55;;;;;;;;;;4857437;29;20045;-79
2023/09/28 07:35:25;;;;;;;5.72;1.77;;;;;;;;;;4826402;29;20405;-78
2023/09/28 07:37:55;;;;;;;3.47;1.42;;;;;;;;;;4845888;29;20046;-78
2023/09/28 07:40:29;;;;;;;4.68;1.50;;;;;;;;;;4845843;29;20421;-77
2023/09/28 07:43:20;;;;;;;3.55;1.40;;;;;;;;;;4845781;29;20050;-78
2023/09/28 07:45:50;;;;;;;4.38;1.52;;;;;;;;;;4845549;29;20057;-78
2023/09/28 07:48:20;;;;;;;2.88;1.33;;;;;;;;;;4845269;29;20057;-77
2023/09/28 07:50:55;;;;;;;2.95;1.33;;;;;;;;;;4830251;29;20062;-78
2023/09/28 07:53:26;;;;;;;6.03;1.30;;;;;;;;;;4845521;29;20523;-77
2023/09/28 07:55:56;;;;;;;2.60;1.42;;;;;;;;;;4846068;29;20057;-77
2023/09/28 07:58:26;;;;;;;3.22;1.40;;;;;;;;;;4845234;29;20049;-78
2023/09/28 08:01:03;;;;;;;4.60;1.27;;;;;;;;;;4845163;29;20077;-77
2023/09/28 08:03:37;;;;;;;3.30;1.45;;;;;;;;;;4845017;29;20050;-79
2023/09/28 08:06:09;;;;;;;3.50;1.30;;;;;;;;;;4845529;29;20053;-78
2023/09/28 08:08:57;;;;;;;3.60;0.93;;;;;;;;;;4845154;29;20402;-78
2023/09/28 08:11:31;;;;;;;3.35;1.60;;;;;;;;;;4845343;29;20072;-78
2023/09/28 08:14:05;;;;;;;3.25;1.48;;;;;;;;;;4845032;29;20444;-79
2023/09/28 08:16:36;;;;;;;4.15;1.75;;;;;;;;;;4844752;29;20057;-78
2023/09/28 08:19:08;;;;;;;3.10;1.52;;;;;;;;;;4844887;29;20049;-79
2023/09/28 08:21:40;;;;;;;12.77;2.65;;;;;;;;;;4844950;29;20046;-78
2023/09/28 08:24:11;;;;;;;5.72;1.65;;;;;;;;;;4845241;29;20057;-77
2023/09/28 08:26:43;;;;;;;3.00;1.50;;;;;;;;;;4845072;29;20054;-77
2023/09/28 08:29:19;;;;;;;4.75;1.88;;;;;;;;;;4844697;29;20057;-78
2023/09/28 08:31:49;;;;;;;4.93;2.63;;;;;;;;;;4827847;29;20069;-77
2023/09/28 08:34:20;;;;;;;4.72;2.35;;;;;;;;;;4844994;29;20381;-78
2023/09/28 08:37:09;;;;;;;5.53;2.00;;;;;;;;;;4844435;29;20531;-77
2023/09/28 08:39:43;;;;;;;5.63;1.88;;;;;;;;;;4844556;29;20046;-78
2023/09/28 08:42:22;;;;;;;4.88;2.45;;;;;;;;;;4844727;29;20049;-77
2023/09/28 08:45:02;;;;;;;9.05;3.67;;;;;;;;;;4844358;29;20352;-79
2023/09/28 08:47:48;;;;;;;7.47;3.17;;;;;;;;;;4845195;29;20061;-78
2023/09/28 08:50:31;;;;;;;5.13;3.05;;;;;;;;;;4828368;29;20058;-78
2023/09/28 08:53:06;;;;;;;6.38;3.15;;;;;;;;;;4844237;29;20050;-80
2023/09/28 08:55:42;;;;;;;5.93;3.13;;;;;;;;;;4844717;29;20053;-78
2023/09/28 08:58:20;;;;;;;8.57;3.05;;;;;;;;;;4828757;29;20050;-78
2023/09/28 09:00:53;;;;;;;6.05;3.03;;;;;;;;;;4843905;29;20486;-77
2023/09/28 09:03:24;;;;;;;6.55;2.60;;;;;;;;;;4844175;29;20058;-78
2023/09/28 09:05:59;;;;;;;6.28;2.67;;;;;;;;;;4843724;29;20053;-78
2023/09/28 09:08:38;;;;;;;5.00;2.80;;;;;;;;;;4843631;29;20057;-78
2023/09/28 09:11:10;;;;;;;6.80;3.40;;;;;;;;;;4843916;29;20054;-78
2023/09/28 09:13:51;;;;;;;8.35;3.72;;;;;;;;;;4843860;29;20054;-77
2023/09/28 09:16:29;;;;;;;8.75;3.28;;;;;;;;;;4844012;29;20397;-77
2023/09/28 09:19:01;;;;;;;9.65;3.40;;;;;;;;;;4843683;29;20041;-76
2023/09/28 09:21:43;;;;;;;8.80;3.72;;;;;;;;;;4843878;29;20072;-78
2023/09/28 09:24:18;;;;;;;7.32;3.10;;;;;;;;;;4843917;29;20474;-79
2023/09/28 09:26:53;;;;;;;9.15;3.80;;;;;;;;;;4843583;29;20397;-80
2023/09/28 09:29:25;;;;;;;7.80;3.00;;;;;;;;;;4844069;29;20046;-79
2023/09/28 09:31:58;;;;;;;7.22;3.42;;;;;;;;;;4843573;29;20046;-80
2023/09/28 09:34:29;;;;;;;7.82;3.08;;;;;;;;;;4843426;29;20151;-77
2023/09/28 09:37:01;;;;;;;10.05;3.72;;;;;;;;;;4843567;29;20061;-77
2023/09/28 09:39:36;;;;;;;6.68;3.63;;;;;;;;;;4843715;29;20072;-79
2023/09/28 09:42:06;;;;;;;7.50;3.42;;;;;;;;;;4843639;29;20073;-78
2023/09/28 09:44:37;;;;;;;6.40;2.45;;;;;;;;;;4843411;29;20402;-79
2023/09/28 09:47:14;;;;;;;5.60;2.67;;;;;;;;;;4843251;29;20508;-80
2023/09/28 09:49:50;;;;;;;9.68;3.00;;;;;;;;;;4843415;29;20069;-78
2023/09/28 09:52:24;;;;;;;4.90;2.15;;;;;;;;;;4843487;29;20045;-79
2023/09/28 09:54:55;;;;;;;6.25;2.95;;;;;;;;;;4827563;29;20485;-79
2023/09/28 09:57:31;;;;;;;6.70;2.75;;;;;;;;;;4843517;29;20053;-78
2023/09/28 10:00:07;;;;;;;5.28;2.72;;;;;;;;;;4843787;29;20057;-79
2023/09/28 10:02:40;;;;;;;9.35;2.90;;;;;;;;;;4843745;29;20070;-78
2023/09/28 10:05:14;;;;;;;5.70;2.70;;;;;;;;;;4843553;29;20073;-79
2023/09/28 10:07:55;;;;;;;7.00;2.97;;;;;;;;;;4843092;29;20050;-80
2023/09/28 10:10:31;;;;;;;4.57;2.67;;;;;;;;;;4855734;29;20064;-79
2023/09/28 10:13:02;;;;;;;6.10;2.90;;;;;;;;;;4862005;29;20049;-79
2023/09/28 10:15:33;;;;;;;5.80;2.38;;;;;;;;;;4861284;29;20053;-78
2023/09/28 10:18:06;;;;;;;6.05;2.97;;;;;;;;;;4861313;29;20404;-80
2023/09/28 10:20:38;;;;;;;8.68;2.55;;;;;;;;;;4861206;29;20049;-78
2023/09/28 10:23:13;;;;;;;3.70;1.70;;;;;;;;;;4861438;29;20473;-79
2023/09/28 10:26:16;;;;;;;4.30;1.92;;;;;;;;;;4861370;29;20053;-79
2023/09/28 10:29:06;;;;;;;7.90;2.08;;;;;;;;;;4860210;29;20065;-79
2023/09/28 10:31:39;;;;;;;7.72;2.42;;;;;;;;;;4861278;29;20054;-79
2023/09/28 10:34:33;;;;;;;6.88;2.50;;;;;;;;;;4861696;29;20053;-79
2023/09/28 10:37:11;;;;;;;4.60;1.52;;;;;;;;;;4861014;29;20072;-79
2023/09/28 10:39:57;;;;;;;3.72;1.88;;;;;;;;;;4861089;29;20053;-79
2023/09/28 10:42:30;;;;;;;4.97;1.85;;;;;;;;;;4861038;29;20056;-78
2023/09/28 10:45:01;;;;;;;2.65;1.05;;;;;;;;;;4861094;29;20045;-79
2023/09/28 10:47:32;;;;;;;4.10;1.55;;;;;;;;;;4844651;29;20053;-78
2023/09/28 10:50:05;;;;;;;2.97;1.52;;;;;;;;;;4861108;29;20053;-78
2023/09/28 10:52:38;;;;;;;5.38;0.82;;;;;;;;;;4840905;29;20046;-78
2023/09/28 10:55:10;;;;;;;3.35;1.05;;;;;;;;;;4841453;29;20046;-78
2023/09/28 10:57:40;;;;;;;6.80;1.60;;;;;;;;;;4855784;29;20053;-80
2023/09/28 11:00:12;;;;;;;1.95;0.88;;;;;;;;;;4841190;29;20050;-78
2023/09/28 11:02:44;;;;;;;2.13;0.60;;;;;;;;;;4841689;29;20054;-79
2023/09/28 11:05:18;;;;;;;1.90;1.02;;;;;;;;;;4837891;29;20046;-80
2023/09/28 11:07:51;;;;;;;1.50;0.80;;;;;;;;;;4841781;29;20053;-78
2023/09/28 11:10:26;;;;;;;1.42;0.70;;;;;;;;;;4842392;29;20426;-77
2023/09/28 11:12:58;;;;;;;4.45;1.27;;;;;;;;;;4845071;29;20042;-80
2023/09/28 11:15:29;;;;;;;1.95;0.70;;;;;;;;;;4844840;29;20532;-80
2023/09/28 11:17:59;;;;;;;0.70;0.40;;;;;;;;;;4828213;29;20058;-79
2023/09/28 11:20:33;;;;;;;1.52;0.73;;;;;;;;;;4844989;29;20049;-78
2023/09/28 11:23:13;;;;;;;2.45;0.80;;;;;;;;;;4844920;29;20050;-77
2023/09/28 11:25:44;;;;;;;2.08;1.00;;;;;;;;;;4845602;29;20054;-77
2023/09/28 11:28:14;;;;;;;4.10;1.30;;;;;;;;;;4846333;29;20370;-78
2023/09/28 11:31:02;;;;;;;6.10;2.05;;;;;;;;;;4867327;29;20042;-79
2023/09/28 11:33:34;;;;;;;1.30;0.57;;;;;;;;;;4882696;29;20040;-79
2023/09/28 11:36:08;;;;;;;0.93;0.43;;;;;;;;;;4868561;29;20026;-78
2023/09/28 11:38:40;;;;;;;2.03;0.85;;;;;;;;;;4868677;29;20038;-78
2023/09/28 11:41:14;;;;;;;1.48;0.40;;;;;;;;;;4865026;29;20049;-77
2023/09/28 11:43:49;;;;;;;1.75;0.88;;;;;;;;;;4844585;29;20417;-79
2023/09/28 11:46:23;;;;;;;1.38;0.75;;;;;;;;;;4857458;29;20056;-79
2023/09/28 11:49:09;;;;;;;2.08;1.13;;;;;;;;;;4863082;29;20489;-78
2023/09/28 11:51:42;;;;;;;2.25;0.70;;;;;;;;;;4862791;29;20060;-79
2023/09/28 11:54:16;;;;;;;1.23;0.63;;;;;;;;;;4862365;29;20053;-80
2023/09/28 11:56:50;;;;;;;3.95;0.50;;;;;;;;;;4862198;29;20061;-79
2023/09/28 11:59:20;;;;;;;1.23;0.55;;;;;;;;;;4862085;29;20054;-79
2023/09/28 12:01:52;;;;;;;1.02;0.30;;;;;;;;;;4862498;29;20053;-80
2023/09/28 12:04:26;;;;;;;2.17;0.70;;;;;;;;;;4859401;29;20049;-79
2023/09/28 12:07:01;;;;;;;3.95;0.70;;;;;;;;;;4858430;29;20054;-79
2023/09/28 12:09:31;;;;;;;5.70;1.20;;;;;;;;;;4844589;29;20042;-78
2023/09/28 12:12:03;;;;;;;1.50;0.80;;;;;;;;;;4845073;29;20060;-78
2023/09/28 12:14:35;;;;;;;2.20;0.82;;;;;;;;;;4844759;29;20054;-77
2023/09/28 12:17:05;;;;;;;1.15;0.65;;;;;;;;;;4845009;29;20042;-77
2023/09/28 12:19:35;;;;;;;2.20;1.25;;;;;;;;;;4844742;29;20382;-77
2023/09/28 12:22:07;;;;;;;1.85;0.75;;;;;;;;;;4844585;29;20046;-78
2023/09/28 12:24:41;;;;;;;4.68;1.73;;;;;;;;;;4828831;29;20509;-77
2023/09/28 12:27:14;;;;;;;1.60;0.40;;;;;;;;;;4845169;29;20050;-77
2023/09/28 12:29:45;;;;;;;2.10;0.75;;;;;;;;;;4862617;29;20507;-78
2023/09/28 12:32:15;;;;;;;1.02;0.60;;;;;;;;;;4863519;29;20054;-78
2023/09/28 12:34:47;;;;;;;1.17;0.70;;;;;;;;;;4862377;29;20056;-77
2023/09/28 12:37:19;;;;;;;1.38;0.65;;;;;;;;;;4863432;29;20061;-82
2023/09/28 12:39:50;;;;;;;1.58;0.73;;;;;;;;;;4863057;29;20049;-80
2023/09/28 12:42:26;;;;;;;1.50;0.70;;;;;;;;;;4862509;29;20045;-80
2023/09/28 12:45:01;;;;;;;1.15;0.70;;;;;;;;;;4863799;29;20049;-79
2023/09/28 12:47:33;;;;;;;1.20;0.50;;;;;;;;;;4863031;29;20053;-78
2023/09/28 12:50:04;;;;;;;2.22;0.95;;;;;;;;;;4863069;29;20481;-77
2023/09/28 12:52:36;;;;;;;1.45;0.75;;;;;;;;;;4863005;29;20397;-78
2023/09/28 12:55:11;;;;;;;1.88;0.80;;;;;;;;;;4862682;29;20076;-78
2023/09/28 12:57:44;;;;;;;2.40;0.85;;;;;;;;;;4862477;29;20049;-77
2023/09/28 13:00:14;;;;;;;1.60;0.63;;;;;;;;;;4862742;29;20052;-78
2023/09/28 13:02:47;;;;;;;;;;;;;;;;;;4862682;29;20041;-77
2023/09/28 13:05:21;;;;;;;6.05;1.13;;;;;;;;;;4862529;29;19931;-77
2023/09/28 13:07:55;;;;;;;1.75;0.40;;;;;;;;;;4862461;29;20056;-78
2023/09/28 13:10:27;;;;;;;3.22;0.82;;;;;;;;;;4862268;29;20052;-79
2023/09/28 13:13:00;;;;;;;1.27;0.80;;;;;;;;;;4862362;29;20057;-77
2023/09/28 13:15:34;;;;;;;0.93;0.40;;;;;;;;;;4853265;29;20049;-76
2023/09/28 13:18:08;;;;;;;2.50;0.60;;;;;;;;;;4861749;29;20064;-77
2023/09/28 13:20:41;;;;;;;1.95;0.60;;;;;;;;;;4861757;29;20045;-77
2023/09/28 13:23:16;;;;;;;0.93;0.60;;;;;;;;;;4861703;29;20053;-78
2023/09/28 13:25:46;;;;;;;3.78;0.65;;;;;;;;;;4852644;29;20053;-78
2023/09/28 13:28:16;;;;;;;0.85;0.52;;;;;;;;;;4842773;29;20046;-78
2023/09/28 13:30:47;;;;;;;0.57;0.30;;;;;;;;;;4843014;29;20054;-77
2023/09/28 13:33:19;;;;;;;2.10;0.50;;;;;;;;;;4842547;29;20054;-76
2023/09/28 13:35:49;;;;;;;0.93;0.60;;;;;;;;;;4837904;29;20053;-77
2023/09/28 13:38:23;;;;;;;3.55;0.50;;;;;;;;;;4834793;29;20505;-76
2023/09/28 13:40:55;;;;;;;0.95;0.52;;;;;;;;;;4857749;29;20042;-77
2023/09/28 13:43:43;;;;;;;4.65;0.57;;;;;;;;;;4855794;29;20456;-77
2023/09/28 13:46:17;;;;;;;1.98;1.13;;;;;;;;;;4860585;29;20475;-77
2023/09/28 13:48:51;;;;;;;2.13;0.68;;;;;;;;;;4860457;29;20236;-77
2023/09/28 13:51:22;;;;;;;3.42;0.90;;;;;;;;;;4844197;29;20512;-77
2023/09/28 13:53:52;;;;;;;0.88;0.45;;;;;;;;;;4850930;29;20057;-78
2023/09/28 13:56:26;;;;;;;2.25;1.02;;;;;;;;;;4841583;29;20528;-76
2023/09/28 13:58:57;;;;;;;1.20;0.73;;;;;;;;;;4840144;29;20057;-78
2023/09/28 14:01:29;;;;;;;1.45;0.63;;;;;;;;;;4841302;29;20188;-79
2023/09/28 14:04:00;;;;;;;2.40;0.95;;;;;;;;;;4841904;29;20391;-80
2023/09/28 14:06:33;;;;;;;1.55;0.65;;;;;;;;;;4841678;29;20046;-75
2023/09/28 14:09:04;;;;;;;1.48;0.55;;;;;;;;;;4840899;29;20504;-78
2023/09/28 14:11:34;;;;;;;2.20;1.10;;;;;;;;;;4824750;29;20414;-78
2023/09/28 14:14:05;;;;;;;3.65;1.00;;;;;;;;;;4841699;29;20061;-77
2023/09/28 14:16:41;;;;;;;1.42;0.68;;;;;;;;;;4826517;29;20042;-77
2023/09/28 14:19:13;;;;;;;2.05;0.65;;;;;;;;;;4841997;29;20049;-77
2023/09/28 14:21:44;;;;;;;2.00;0.60;;;;;;;;;;4842209;29;20046;-77
2023/09/28 14:24:14;;;;;;;2.33;0.98;;;;;;;;;;4852128;29;20049;-77
2023/09/28 14:26:47;;;;;;;1.80;1.23;;;;;;;;;;4859548;29;20456;-76
2023/09/28 14:29:18;;;;;;;2.28;0.70;;;;;;;;;;4858254;29;20056;-76
2023/09/28 14:31:54;;;;;;;2.05;0.80;;;;;;;;;;4858215;29;20054;-76
2023/09/28 14:34:25;;;;;;;1.35;0.70;;;;;;;;;;4859321;29;20046;-77
2023/09/28 14:36:55;;;;;;;1.77;0.90;;;;;;;;;;4859485;29;20401;-78
2023/09/28 14:39:29;;;;;;;4.28;1.10;;;;;;;;;;4859449;29;20045;-77
2023/09/28 14:42:01;;;;;;;0.98;0.52;;;;;;;;;;4845522;29;20069;-77
2023/09/28 14:44:36;;;;;;;1.38;0.70;;;;;;;;;;4841457;29;20061;-77
2023/09/28 14:47:06;;;;;;;2.67;0.75;;;;;;;;;;4841240;29;20052;-77
2023/09/28 14:49:39;;;;;;;2.30;0.88;;;;;;;;;;4825543;29;20524;-77
2023/09/28 14:52:11;;;;;;;1.98;0.82;;;;;;;;;;4844032;29;20046;-78
2023/09/28 14:54:42;;;;;;;1.98;0.70;;;;;;;;;;4845424;29;20493;-76
2023/09/28 14:57:13;;;;;;;1.63;0.70;;;;;;;;;;4841072;29;20049;-76
2023/09/28 14:59:45;;;;;;;2.33;0.57;;;;;;;;;;4858359;29;20068;-76
2023/09/28 15:02:17;;;;;;;4.35;0.98;;;;;;;;;;4859567;29;20052;-77
2023/09/28 15:04:51;;;;;;;2.05;0.60;;;;;;;;;;4859063;29;20049;-77
2023/09/28 15:07:21;;;;;;;1.70;0.82;;;;;;;;;;4859161;29;20057;-76
2023/09/28 15:09:52;;;;;;;1.65;0.70;;;;;;;;;;4858955;29;20064;-77
2023/09/28 15:12:24;;;;;;;1.60;0.75;;;;;;;;;;4845269;29;20057;-77
2023/09/28 15:14:56;;;;;;;1.52;0.70;;;;;;;;;;4858749;29;20050;-78
2023/09/28 15:17:26;;;;;;;3.22;0.90;;;;;;;;;;4859081;29;20519;-78
2023/09/28 15:20:05;;;;;;;2.55;0.70;;;;;;;;;;4843277;29;20050;-77
2023/09/28 15:22:40;;;;;;;2.67;0.75;;;;;;;;;;4858907;29;20056;-79